CheckWX is a tool to help pilots better visualize weather data.  It is not intended as a substitute for an official pre-flight weather briefing.

02:56:45 UTC

YPKG METAR
Kalgoorlie Boulder Airport
Kalgoorlie, Australia
Current

27 mins ago

YPKG 230230Z AUTO 11005KT 080V170 9999 // NCD 32/14 Q1014 RF00.0/000.0
Observed
Feb-23 @ 02:30 UTC
Wind
  • 110° at 5 KTS
Visibility
10,000+ meters
Flight Rules
VFR
Cloud Levels
  • Clear skies
Temperature
32°C / 90°F
Dewpoint
14°C / 57°F
Humidity
33%
Altimeter
29.94" Hg
Pressure
1013.92 hPa
Previous

57 mins ago

YPKG 230200Z AUTO 14004KT 070V180 9999 // NCD 29/14 Q1014
Observed
Feb-23 @ 02:00 UTC
Wind
  • 140° at 4 KTS
Visibility
10,000+ meters
Flight Rules
VFR
Cloud Levels
  • Clear skies
Temperature
29°C / 84°F
Dewpoint
14°C / 57°F
Humidity
40%
Altimeter
29.94" Hg
Pressure
1013.92 hPa
Previous

1 hour ago

YPKG 230130Z AUTO 12005KT 9999 // NCD 28/14 Q1014 RF00.0/000.0
Observed
Feb-23 @ 01:30 UTC
Wind
  • 120° at 5 KTS
Visibility
10,000+ meters
Flight Rules
VFR
Cloud Levels
  • Clear skies
Temperature
28°C / 82°F
Dewpoint
14°C / 57°F
Humidity
42%
Altimeter
29.94" Hg
Pressure
1013.92 hPa